Time;durP1;ratioP1;P1;durP2;ratioP2;P2;SDS_P1;SDS_P2;PMS_P1;PMS_P2;Temp;Humidity;BMP_temperature;BMP_pressure;BME280_temperature;BME280_humidity;BME280_pressure;Samples;Min_cycle;Max_cycle;Signal;HPM_P1;HPM_P2
2021/05/06 05:56:45;;;;;;;2.72;1.13;;;;;;;35.53;18.12;93615.78;5072361;28;20082;-80
2021/05/06 05:59:10;;;;;;;4.18;1.08;;;;;;;35.72;18.20;93622.16;5070738;28;21198;-82
2021/05/06 06:01:39;;;;;;;2.03;0.90;;;;;;;35.68;17.91;93616.03;5072618;28;20031;-82
2021/05/06 06:04:04;;;;;;;3.70;1.23;;;;;;;36.16;18.32;93620.75;5069882;28;20127;-84
2021/05/06 06:06:29;;;;;;;4.75;1.02;;;;;;;36.27;17.82;93623.81;5077563;28;20314;-83
2021/05/06 06:08:55;;;;;;;3.38;0.90;;;;;;;36.10;17.73;93630.78;5074751;28;20743;-84
2021/05/06 06:11:20;;;;;;;2.83;1.02;;;;;;;36.43;17.64;93612.50;5073966;28;20042;-85
2021/05/06 06:13:48;;;;;;;3.25;1.00;;;;;;;36.67;17.36;93618.19;5060857;28;20139;-84
2021/05/06 06:16:41;;;;;;;5.47;1.58;;;;;;;37.09;17.04;93610.06;5069849;28;20051;-85
2021/05/06 06:26:18;;;;;;;1.95;1.17;;;;;;;37.00;17.64;93617.53;4980531;28;20321;-86
2021/05/06 06:29:26;;;;;;;;;;;;;;;;;;;;;
2021/05/06 06:32:16;;;;;;;4.55;1.63;;;;;;;37.14;17.51;93631.47;4961067;28;20281;-87
2021/05/06 06:35:02;;;;;;;5.45;1.25;;;;;;;36.84;17.99;93627.69;4975502;28;20198;-90
2021/05/06 06:37:38;;;;;;;3.97;1.45;;;;;;;36.87;17.85;93631.50;4988714;28;20577;-89
2021/05/06 06:40:17;;;;;;;3.28;1.02;;;;;;;37.52;17.82;93647.47;4944659;28;20241;-86
2021/05/06 06:43:20;;;;;;;5.10;1.42;;;;;;;38.59;16.74;93667.97;4990796;28;20127;-85
2021/05/06 06:46:05;;;;;;;6.60;1.50;;;;;;;38.73;16.13;93653.44;4945095;28;20063;-85
2021/05/06 06:49:10;;;;;;;3.80;1.35;;;;;;;38.96;16.25;93654.63;4925166;28;20047;-86
2021/05/06 06:55:29;;;;;;;5.50;1.35;;;;;;;40.22;15.44;93645.47;4884767;28;20139;-86
2021/05/06 06:58:19;;;;;;;5.18;1.40;;;;;;;40.26;15.67;93662.63;4961172;28;20071;-87
2021/05/06 07:01:07;;;;;;;3.63;1.10;;;;;;;40.56;15.16;93641.88;5034987;28;20369;-87
2021/05/06 07:03:56;;;;;;;5.13;1.73;;;;;;;40.63;15.19;93654.56;5018044;28;20464;-88
2021/05/06 07:06:32;;;;;;;5.45;1.20;;;;;;;40.91;14.99;93682.56;4976148;28;20041;-85
2021/05/06 07:09:01;;;;;;;3.13;1.45;;;;;;;39.92;15.44;93660.59;4951536;28;20050;-88
2021/05/06 07:11:39;;;;;;;4.70;1.30;;;;;;;39.69;15.93;93671.25;4986140;28;20120;-86
2021/05/06 07:14:18;;;;;;;5.60;1.20;;;;;;;39.55;15.74;93665.75;5001402;28;20037;-89
2021/05/06 07:17:03;;;;;;;5.20;1.45;;;;;;;40.23;15.64;93669.09;5019487;28;20025;-86
2021/05/06 07:19:57;;;;;;;4.32;1.33;;;;;;;40.67;15.21;93657.88;4973950;28;20110;-87
2021/05/06 07:22:56;;;;;;;5.88;1.30;;;;;;;40.23;14.76;93680.19;5005483;28;20046;-89
2021/05/06 07:25:45;;;;;;;4.43;1.10;;;;;;;39.96;15.41;93661.16;4927267;28;20662;-87
2021/05/06 07:29:05;;;;;;;5.72;1.20;;;;;;;40.91;14.99;93682.56;4945856;28;21157;-87
2021/05/06 07:31:37;;;;;;;3.63;1.00;;;;;;;40.81;14.42;93689.53;4925110;28;20037;-88
2021/05/06 07:34:12;;;;;;;3.63;0.88;;;;;;;40.30;15.17;93690.84;4965976;28;20113;-88
2021/05/06 07:36:56;;;;;;;7.82;1.60;;;;;;;41.17;15.09;93694.50;4974695;28;20075;-87
2021/05/06 07:39:29;;;;;;;3.58;0.93;;;;;;;41.83;14.44;93671.44;4946301;28;20176;-86
2021/05/06 07:42:09;;;;;;;6.00;1.40;;;;;;;41.50;14.53;93674.66;4945437;28;20232;-87
2021/05/06 07:44:57;;;;;;;3.50;1.55;;;;;;;42.05;14.28;93679.94;4943612;28;20052;-87
2021/05/06 07:47:33;;;;;;;6.55;2.08;;;;;;;42.06;13.84;93662.03;4967864;28;20163;-91
2021/05/06 07:50:43;;;;;;;7.10;1.55;;;;;;;42.58;14.29;93695.94;4973002;28;20128;-87
2021/05/06 07:56:11;;;;;;;5.18;1.33;;;;;;;42.96;13.42;93652.91;5005593;28;20062;-86
2021/05/06 07:59:20;;;;;;;4.78;1.40;;;;;;;42.48;13.68;93649.41;5021375;28;20017;-86
2021/05/06 08:02:30;;;;;;;2.80;1.20;;;;;;;43.83;13.37;93680.66;4911822;28;20438;-87
2021/05/06 08:05:06;;;;;;;7.28;1.38;;;;;;;44.26;13.16;93655.34;4962431;28;20039;-87
2021/05/06 08:08:21;;;;;;;;;;;;;;;;;;;;;
2021/05/06 08:11:10;;;;;;;;;;;;;;;;;;;;;
2021/05/06 08:13:49;;;;;;;4.85;1.38;;;;;;;44.12;13.22;93687.75;5026133;28;20356;-87
2021/05/06 08:16:27;;;;;;;16.98;1.80;;;;;;;44.09;12.87;93688.00;5033069;28;20041;-91
2021/05/06 08:19:05;;;;;;;7.68;1.73;;;;;;;42.95;13.72;93690.31;4971199;28;20606;-87
2021/05/06 08:22:12;;;;;;;8.30;1.50;;;;;;;43.98;13.06;93683.97;4959849;28;20053;-92
2021/05/06 08:24:41;;;;;;;3.78;1.23;;;;;;;42.96;13.64;93660.50;4983923;28;20045;-92
2021/05/06 08:27:07;;;;;;;2.80;1.23;;;;;;;43.52;13.04;93676.09;5033828;28;20119;-90
2021/05/06 08:29:32;;;;;;;4.47;1.30;;;;;;;43.45;13.13;93656.34;5046666;28;20148;-89
2021/05/06 08:31:58;;;;;;;5.35;1.52;;;;;;;42.93;13.91;93681.72;5052093;28;20077;-87
2021/05/06 08:34:27;;;;;;;5.18;1.40;;;;;;;43.40;13.54;93684.91;5060802;28;20449;-91
2021/05/06 08:36:53;;;;;;;3.35;1.33;;;;;;;43.76;13.10;93672.81;5039717;28;20044;-89
2021/05/06 08:39:19;;;;;;;2.83;1.00;;;;;;;43.70;12.06;93679.63;5048543;28;20036;-88
2021/05/06 08:41:45;;;;;;;3.13;1.08;;;;;;;42.96;12.86;93696.66;5057275;28;20040;-90
2021/05/06 08:44:13;;;;;;;2.40;1.17;;;;;;;42.62;13.12;93695.69;5055868;28;20033;-87
2021/05/06 08:46:50;;;;;;;1.67;0.90;;;;;;;42.98;13.52;93703.22;5060650;28;20158;-89
2021/05/06 08:49:17;;;;;;;5.05;1.25;;;;;;;42.92;13.10;93669.06;5055781;28;20078;-87
2021/05/06 08:51:43;;;;;;;3.13;1.33;;;;;;;41.78;14.13;93709.00;5055912;28;20444;-91
2021/05/06 08:54:09;;;;;;;2.15;0.88;;;;;;;41.83;13.38;93693.63;5035112;28;20082;-88
2021/05/06 08:56:35;;;;;;;5.72;1.20;;;;;;;41.41;14.02;93706.09;5049390;28;20520;-90
2021/05/06 08:59:00;;;;;;;4.00;1.05;;;;;;;40.93;15.19;93674.56;5057191;28;20046;-88
2021/05/06 09:01:25;;;;;;;2.08;0.88;;;;;;;41.42;14.16;93660.47;5039668;28;20100;-89
2021/05/06 09:03:51;;;;;;;5.32;0.98;;;;;;;41.60;13.18;93698.22;5040446;28;20071;-89
2021/05/06 09:06:18;;;;;;;4.60;1.20;;;;;;;40.46;14.43;93704.19;5050508;28;20095;-87
2021/05/06 09:08:52;;;;;;;5.07;1.52;;;;;;;38.26;16.08;93698.38;5051568;28;20487;-83
2021/05/06 09:11:28;;;;;;;1.73;1.17;;;;;;;37.01;17.74;93713.50;5038151;28;20067;-86
2021/05/06 09:14:01;;;;;;;10.48;1.70;;;;;;;35.83;18.12;93710.44;5054574;28;20029;-87
2021/05/06 09:16:37;;;;;;;3.08;1.40;;;;;;;35.09;18.54;93722.22;5041715;28;20597;-89
2021/05/06 09:19:11;;;;;;;2.25;1.10;;;;;;;34.05;19.29;93701.38;5053716;28;20107;-87
2021/05/06 09:21:39;;;;;;;2.97;1.40;;;;;;;34.75;19.34;93717.50;5039775;28;20040;-88
2021/05/06 09:24:10;;;;;;;7.28;1.60;;;;;;;34.43;19.43;93699.34;5046185;28;20051;-89
2021/05/06 09:26:41;;;;;;;3.47;1.30;;;;;;;33.73;19.68;93705.88;5047292;28;20075;-87
2021/05/06 09:29:09;;;;;;;4.75;1.20;;;;;;;33.37;20.45;93717.09;5033684;28;20063;-86
2021/05/06 09:31:40;;;;;;;4.90;1.30;;;;;;;32.68;20.70;93704.91;5074754;28;20032;-87
2021/05/06 09:34:08;;;;;;;8.10;1.50;;;;;;;32.37;21.72;93706.47;5055694;28;20041;-89
2021/05/06 09:36:34;;;;;;;2.63;1.70;;;;;;;32.35;21.44;93711.63;5059172;28;20028;-88
2021/05/06 09:39:03;;;;;;;4.82;1.33;;;;;;;32.01;22.08;93715.50;5055993;28;20044;-84
2021/05/06 09:41:31;;;;;;;3.38;1.50;;;;;;;31.18;22.62;93706.78;5054284;28;20040;-85
2021/05/06 09:44:11;;;;;;;5.93;1.85;;;;;;;30.81;23.75;93701.66;5035111;28;20035;-89
2021/05/06 09:46:42;;;;;;;1.65;1.00;;;;;;;30.28;22.95;93708.03;5041717;28;20025;-90
2021/05/06 09:49:08;;;;;;;4.00;1.35;;;;;;;29.73;22.56;93713.94;5053539;28;20040;-90
2021/05/06 09:51:43;;;;;;;3.63;1.30;;;;;;;29.30;23.88;93717.25;5040074;28;20572;-90
2021/05/06 09:54:14;;;;;;;1.42;1.20;;;;;;;29.34;23.63;93715.28;5034838;28;20055;-89
2021/05/06 09:56:41;;;;;;;6.63;1.40;;;;;;;29.27;24.26;93712.63;5045531;28;20135;-90
2021/05/06 09:59:07;;;;;;;6.45;2.03;;;;;;;29.51;24.03;93703.38;5054213;28;20029;-87
2021/05/06 10:01:44;;;;;;;2.80;1.05;;;;;;;29.47;23.29;93716.25;5036089;28;20052;-88
2021/05/06 10:04:19;;;;;;;4.32;1.92;;;;;;;29.24;24.21;93724.31;5057627;28;20135;-87
2021/05/06 10:07:03;;;;;;;;;;;;;;;29.34;24.01;93720.72;5059009;28;20439;-89
2021/05/06 10:09:30;;;;;;;3.50;1.20;;;;;;;28.24;24.36;93702.84;5054524;28;20500;-89
2021/05/06 10:11:56;;;;;;;6.57;1.40;;;;;;;28.43;24.46;93706.94;5049105;28;20040;-89
2021/05/06 10:14:21;;;;;;;1.38;1.00;;;;;;;28.15;23.95;93696.34;5031404;28;20048;-84
2021/05/06 10:16:48;;;;;;;4.82;1.45;;;;;;;27.99;24.97;93692.19;5036966;28;20044;-86
2021/05/06 10:19:16;;;;;;;2.78;1.25;;;;;;;27.69;25.06;93708.31;5036725;28;20132;-87
2021/05/06 10:21:43;;;;;;;1.48;1.25;;;;;;;27.46;26.14;93711.53;5032027;28;20040;-85
2021/05/06 10:24:09;;;;;;;5.60;1.65;;;;;;;27.82;26.59;93712.09;5036125;28;20107;-84
2021/05/06 10:26:37;;;;;;;3.08;1.13;;;;;;;27.41;25.92;93711.19;5036125;28;20037;-84
2021/05/06 10:29:04;;;;;;;6.55;1.20;;;;;;;27.36;27.50;93722.44;5036429;28;20017;-86
2021/05/06 10:31:32;;;;;;;1.48;1.25;;;;;;;27.46;26.50;93727.06;5058577;28;20020;-88
2021/05/06 10:34:06;;;;;;;5.65;1.48;;;;;;;27.39;25.36;93680.94;5053131;28;20515;-88
2021/05/06 10:36:41;;;;;;;4.72;1.25;;;;;;;27.00;25.64;93679.22;5056738;28;20039;-84
2021/05/06 10:39:15;;;;;;;1.40;1.13;;;;;;;27.03;25.35;93683.06;5048328;28;20048;-86
2021/05/06 10:41:47;;;;;;;5.07;1.00;;;;;;;26.83;25.75;93698.25;5036676;28;20094;-86
2021/05/06 10:44:18;;;;;;;9.32;1.58;;;;;;;26.92;27.21;93723.81;5040370;28;20040;-90
2021/05/06 10:46:56;;;;;;;2.40;1.00;;;;;;;26.71;28.59;93730.03;5055927;28;20097;-90
2021/05/06 10:49:25;;;;;;;2.60;1.23;;;;;;;26.94;26.93;93724.19;5055392;28;20044;-88
2021/05/06 10:52:04;;;;;;;2.08;1.15;;;;;;;26.88;27.01;93723.03;5040190;28;20035;-84
2021/05/06 10:54:37;;;;;;;1.80;0.90;;;;;;;26.83;26.75;93723.41;5053313;28;20044;-88
2021/05/06 10:57:18;;;;;;;9.27;1.25;;;;;;;26.61;27.68;93728.13;5060104;28;20411;-85
2021/05/06 10:59:47;;;;;;;5.75;1.40;;;;;;;26.36;26.49;93721.97;5055749;28;20621;-84
2021/05/06 11:02:36;;;;;;;3.10;1.05;;;;;;;26.42;28.24;93712.31;5010605;28;20064;-87
2021/05/06 11:05:17;;;;;;;5.13;1.33;;;;;;;26.23;28.58;93716.22;5034344;28;20024;-86
2021/05/06 11:08:05;;;;;;;3.25;1.25;;;;;;;26.50;31.06;93732.03;5037359;28;20112;-85
2021/05/06 11:10:45;;;;;;;3.53;1.40;;;;;;;26.81;28.24;93714.91;5058503;28;20171;-85
2021/05/06 11:13:14;;;;;;;3.72;1.70;;;;;;;26.65;28.77;93682.03;5066868;28;20128;-86
2021/05/06 11:15:40;;;;;;;4.50;1.30;;;;;;;26.24;26.78;93709.59;5051201;28;20117;-85
2021/05/06 11:18:09;;;;;;;4.55;1.40;;;;;;;26.30;27.02;93724.31;5060959;28;20396;-84
2021/05/06 11:20:46;;;;;;;3.80;1.50;;;;;;;26.37;27.73;93723.53;5052940;28;20535;-85
2021/05/06 11:23:24;;;;;;;4.47;1.30;;;;;;;26.22;28.52;93720.06;5037247;28;20051;-85
2021/05/06 11:25:53;;;;;;;5.90;1.60;;;;;;;26.16;28.73;93713.47;5074120;28;20039;-88
2021/05/06 11:28:18;;;;;;;4.05;1.50;;;;;;;26.02;29.90;93702.66;5057778;28;20028;-86
2021/05/06 11:30:44;;;;;;;5.90;1.20;;;;;;;25.78;29.14;93723.16;5047551;28;20048;-88
2021/05/06 11:33:18;;;;;;;3.22;1.17;;;;;;;25.57;28.88;93720.41;5038753;28;20044;-88
2021/05/06 11:36:17;;;;;;;1.58;1.20;;;;;;;25.27;29.08;93701.78;5059715;28;20052;-88
2021/05/06 11:38:58;;;;;;;4.60;1.25;;;;;;;25.34;30.00;93712.63;5034872;28;20043;-87
2021/05/06 11:41:35;;;;;;;4.32;1.30;;;;;;;25.09;30.53;93665.81;5026963;28;20106;-86
2021/05/06 11:44:07;;;;;;;2.00;1.42;;;;;;;25.51;30.22;93707.63;5029558;28;20412;-86
2021/05/06 11:46:40;;;;;;;1.45;1.27;;;;;;;25.25;32.09;93666.25;5074082;28;20055;-85
2021/05/06 11:49:11;;;;;;;1.25;1.05;;;;;;;25.51;29.56;93716.50;5038644;28;20125;-86
2021/05/06 11:51:44;;;;;;;5.30;1.10;;;;;;;25.13;29.11;93666.59;5055948;28;20473;-83
2021/05/06 11:54:22;;;;;;;3.92;2.08;;;;;;;25.37;29.99;93676.69;5056590;28;20048;-83
2021/05/06 11:57:01;;;;;;;2.63;1.13;;;;;;;25.60;29.52;93713.47;5058159;28;20568;-88
2021/05/06 11:59:31;;;;;;;6.47;1.40;;;;;;;25.64;30.85;93709.59;5051745;28;20416;-86
2021/05/06 12:02:05;;;;;;;2.60;1.73;;;;;;;25.59;30.51;93701.09;5055117;28;20642;-85
2021/05/06 12:04:34;;;;;;;5.20;1.08;;;;;;;25.48;29.29;93717.28;5063892;28;20020;-83
2021/05/06 12:07:15;;;;;;;8.30;1.33;;;;;;;25.42;30.47;93702.56;5055573;28;20187;-86
2021/05/06 12:09:40;;;;;;;13.23;2.50;;;;;;;25.31;nan;93691.75;5054490;28;20036;-86
2021/05/06 12:12:09;;;;;;;4.00;1.20;;;;;;;24.92;29.25;93670.00;4952208;28;20420;-84
2021/05/06 12:14:40;;;;;;;3.53;1.20;;;;;;;24.83;29.22;93660.66;5017177;28;20460;-88
2021/05/06 12:17:08;;;;;;;5.88;1.10;;;;;;;25.08;32.41;93645.31;5044677;28;20029;-86
2021/05/06 12:19:46;;;;;;;5.53;1.25;;;;;;;25.53;30.13;93697.19;5061889;28;20391;-86
2021/05/06 12:22:16;;;;;;;3.10;1.30;;;;;;;25.38;29.72;93683.63;5057401;28;20089;-87
2021/05/06 12:24:49;;;;;;;4.22;1.38;;;;;;;25.50;29.68;93692.56;5058914;28;20040;-86
2021/05/06 12:27:22;;;;;;;7.90;2.28;;;;;;;25.51;29.52;93680.56;5049139;28;20049;-90
2021/05/06 12:30:13;;;;;;;9.35;1.70;;;;;;;25.31;29.71;93670.13;5054474;28;20523;-88
